San Diego International Airport
KSAN : now visible

Aeroporto :











RITROVATECI SU...

 
LOGIN :

Iscrizione | Disclaimer

   EN    FR    IT 

 









Sommario :    VFR   VFR Marginale   IFR   IFR Intensivo   IFR Molto Intensivo
Visibilità : 
Base nubi : 
>= 8 km
>= 3000ft
5 / 8 km
1000 / 3000 ft
1500m / 5 km
500 / 1000 ft
800 / 1500m
200 / 500 ft
< 800m
< 200 ft
Simboli :   Temporali  Nebbia  Neve Forte  Precipitazioni Forti  Vento > 20 kt






- Altitudine del aeroporto : 17 ft
- Codice IATA : SAN


KSAN - San Diego International

ULTIMO METAR :
  • 250151Z 30004KT 10SM FEW040 FEW200 24/15 A2990 RMK AO2 SLP123 T02440150 $

METARs OBSOLETI :
  • 250051Z 28005KT 10SM FEW040 FEW200 26/15 A2989 RMK AO2 SLP121 T02560150 $
  • 242351Z 28006KT 10SM FEW040 FEW200 26/16 A2989 RMK AO2 SLP122 T02560156 10272 20256 56003 $
  • 242251Z 30008KT 10SM FEW040 FEW200 26/16 A2990 RMK AO2 SLP123 T02610156 $
  • 242151Z 30007KT 10SM FEW040 SCT200 26/17 A2989 RMK AO2 SLP123 T02610167 $
  • 242051Z 28008KT 10SM FEW040 SCT200 27/16 A2990 RMK AO2 SLP126 T02670156 58004 $

TAF KSAN
Valido dal 25 a 00 ore il 26 a 06 ore UTC


242328Z 2500/2606 28010KT P6SM FEW040 FEW200
FM250300 VRB04KT P6SM FEW200
TEMPO 2511/2515 SCT007
FM251900 26010KT P6SM SCT150
FM260200 VRB04KT P6SM SCT150
FIR KZLA / America del Nord



MetMap, La meteo Aeronautica in un colpo d'occhio ! - Copyright ORBIFLY Dicembre 2007 - Disclaimer

ORBIFLY MET'MAP TEAM :

Programmazione e sviluppo : Alexandra Zaïnal
Concezione : Baudouin d'Aumeries
Supporto tecnico e logistico : Manuel Goepfert
Aiuto : Marc-Olivier Méhu
Aiuto per la traduzione : Arnaldo La Scala




FONTI E CREDITI :

   NOAA       Earth
Advisory